Hopatcong, NJ (07843)

11:01 AM EST on January 28, 2015 (GMT -0500)
River Styx Cove | Change Station
CLOSE
Current Station
Personal Weather Station
Location: Hopatcong, NJ
Elevation: 925 ft
Nearby Weather Stations

Elev 925 ft 40.94 °N, 74.65 °W | Updated 7 seconds ago

Clear
Clear
24.8 °F
Feels Like 25 °F
N
0.0
Wind Variable Wind from North

Today
High -- | Low -- °F
--% Chance of Precip.
Yesterday
High -- | Low -- °F
Precip. -- in
7:13 AM 5:10 PM
Waxing Gibbous, 65% visible
Pressure 30.08 in
Visibility 10.0 miles
Clouds Few 10000 ft
Windchill 25 °F
Dew Point 13 °F
Humidity 60%
Rainfall 0.00 in
Snow Depth Not available.
UV 2 out of 12
Pollen .10 out of 12
Air Quality Not available.
Flu Activity Not available.
METAR KMMU 281545Z 35009G17KT 10SM FEW100 M04/M13 A3008

More Conditions Fewer Conditions

Pressure 30.08 in
Visibility 10.0 miles
Clouds Few 10000 ft
Windchill 25 °F
Dew Point 13 °F
Humidity 60%
Rainfall 0.00 in
Snow Depth Not available.
UV 2 out of 12
Pollen .10 out of 12
Air Quality Not available.
Flu Activity Not available.
METAR KMMU 281545Z 35009G17KT 10SM FEW100 M04/M13 A3008

More Conditions Fewer Conditions

10-Day Weather Forecast

Almanac

Astronomy

Jan. 28, 2015 Rise Set
Actual Time
Civil Twilight
Nautical Twilight
Astronomical Twilight
Moon
Length of Visible Light
Length of Day
Tomorrow will be .
, % of the Moon is Illuminated

Today's Extremes

State Highs State Lows

Community

WunderPhotos

Upload Photos

1,791,189 photos uploaded!

WunderBlogs® & News

Nearby

Air Quality

  Air Quality AQ Index Pollutant
Not available.

Snow Depth

Station Depth Elevation

Earthquake Activity

City Distance Mag. Time & Date
Minimum magnitude displayed is 2.5.

Coastal Water Temperatures

Place Temperature

Nearby Weather Stations